Time,TemperatureF,DewpointF,PressureIn,WindDirection,WindDirectionDegrees,WindSpeedMPH,WindSpeedGustMPH,Humidity,HourlyPrecipIn,Conditions,Clouds,dailyrainin,SoftwareType,DateUTC
2013-03-10 00:01:00,40.0,36.0,29.80,SSE,148,5.0,9.0,87,0.00,,,0.05,,2013-03-10 06:01:00,
2013-03-10 00:11:00,40.0,36.0,29.80,SSE,148,5.0,9.0,87,0.00,,,0.05,,2013-03-10 06:11:00,
2013-03-10 00:22:00,41.0,38.0,29.82,South,174,3.0,5.0,89,0.02,,,0.07,,2013-03-10 06:22:00,
2013-03-10 00:32:00,42.0,39.0,29.83,SW,215,4.0,8.0,90,0.02,,,0.07,,2013-03-10 06:32:00,
2013-03-10 00:42:00,42.0,39.0,29.83,SW,215,4.0,8.0,90,0.02,,,0.07,,2013-03-10 06:42:00,
2013-03-10 00:52:00,42.0,40.0,29.83,South,173,1.0,4.0,91,0.05,,,0.10,,2013-03-10 06:52:00,
2013-03-10 01:01:00,41.0,38.0,29.84,WNW,300,1.0,4.0,89,0.05,,,0.10,,2013-03-10 07:01:00,
2013-03-10 01:11:00,41.0,38.0,29.84,WNW,300,1.0,4.0,89,0.05,,,0.10,,2013-03-10 07:11:00,
2013-03-10 01:21:00,40.0,38.0,29.85,North,349,1.0,3.0,92,0.11,,,0.18,,2013-03-10 07:21:00,
2013-03-10 01:31:00,38.0,36.0,29.85,North,5,2.0,5.0,94,0.13,,,0.20,,2013-03-10 07:31:00,
2013-03-10 01:42:00,38.0,37.0,29.85,North,5,1.0,3.0,95,0.11,,,0.21,,2013-03-10 07:42:00,
2013-03-10 01:52:00,38.0,37.0,29.85,North,5,1.0,3.0,95,0.11,,,0.21,,2013-03-10 07:52:00,
2013-03-10 03:01:00,38.0,37.0,29.84,ENE,63,3.0,6.0,95,0.14,,,0.25,,2013-03-10 08:01:00,
2013-03-10 03:11:00,38.0,37.0,29.84,ENE,63,3.0,6.0,95,0.14,,,0.25,,2013-03-10 08:11:00,
2013-03-10 03:21:00,37.0,36.0,29.83,ENE,63,3.0,4.0,95,0.10,,,0.28,,2013-03-10 08:21:00,
2013-03-10 03:31:00,37.0,36.0,29.81,ENE,75,3.0,5.0,97,0.08,,,0.28,,2013-03-10 08:31:00,
2013-03-10 03:42:00,37.0,36.0,29.81,ENE,75,3.0,5.0,97,0.08,,,0.28,,2013-03-10 08:42:00,
2013-03-10 03:52:00,37.0,36.0,29.80,ENE,73,3.0,5.0,96,0.06,,,0.28,,2013-03-10 08:52:00,
2013-03-10 04:01:00,38.0,37.0,29.80,ESE,103,6.0,8.0,97,0.03,,,0.28,,2013-03-10 09:01:00,
2013-03-10 04:11:00,38.0,37.0,29.80,ESE,103,6.0,8.0,97,0.03,,,0.28,,2013-03-10 09:11:00,
2013-03-10 04:21:00,37.0,36.0,29.79,ESE,104,6.0,9.0,97,0.01,,,0.28,,2013-03-10 09:21:00,
2013-03-10 04:31:00,37.0,36.0,29.79,ESE,115,5.0,8.0,97,0.01,,,0.28,,2013-03-10 09:31:00,
2013-03-10 04:41:00,37.0,36.0,29.79,ESE,115,5.0,8.0,97,0.01,,,0.28,,2013-03-10 09:41:00,
2013-03-10 04:52:00,37.0,36.0,29.79,ESE,119,3.0,8.0,97,0.02,,,0.30,,2013-03-10 09:52:00,
2013-03-10 05:01:00,37.0,36.0,29.80,ESE,119,2.0,5.0,98,0.04,,,0.32,,2013-03-10 10:01:00,
2013-03-10 05:11:00,37.0,36.0,29.80,ESE,119,2.0,5.0,98,0.04,,,0.32,,2013-03-10 10:11:00,
2013-03-10 05:21:00,37.0,36.0,29.80,SE,137,4.0,7.0,97,0.06,,,0.35,,2013-03-10 10:21:00,
2013-03-10 05:32:00,37.0,36.0,29.81,SSE,155,4.0,7.0,98,0.10,,,0.39,,2013-03-10 10:32:00,
2013-03-10 05:41:00,38.0,37.0,29.80,SSE,150,5.0,8.0,98,0.10,,,0.40,,2013-03-10 10:41:00,
2013-03-10 05:52:00,38.0,37.0,29.80,SSE,150,5.0,8.0,98,0.10,,,0.40,,2013-03-10 10:52:00,
2013-03-10 06:01:00,38.0,37.0,29.79,SE,124,7.0,10.0,98,0.09,,,0.42,,2013-03-10 11:01:00,
2013-03-10 06:12:00,38.0,37.0,29.79,SE,124,7.0,10.0,98,0.09,,,0.42,,2013-03-10 11:12:00,
2013-03-10 06:21:00,38.0,37.0,29.78,SE,138,7.0,10.0,98,0.06,,,0.42,,2013-03-10 11:21:00,
2013-03-10 06:31:00,39.0,38.0,29.78,SE,141,5.0,9.0,98,0.03,,,0.41,,2013-03-10 11:31:00,
2013-03-10 06:42:00,39.0,38.0,29.78,SE,141,5.0,9.0,98,0.03,,,0.41,,2013-03-10 11:42:00,
2013-03-10 06:52:00,39.0,38.0,29.77,SE,128,8.0,12.0,98,0.03,,,0.42,,2013-03-10 11:52:00,
2013-03-10 07:01:00,39.0,38.0,29.76,SE,137,7.0,12.0,98,0.02,,,0.43,,2013-03-10 12:01:00,
2013-03-10 07:11:00,39.0,38.0,29.76,SE,137,7.0,12.0,98,0.02,,,0.43,,2013-03-10 12:11:00,
2013-03-10 07:21:00,39.0,38.0,29.77,SE,128,4.0,6.0,98,0.03,,,0.44,,2013-03-10 12:21:00,
2013-03-10 07:31:00,39.0,38.0,29.75,SSE,157,5.0,12.0,98,0.04,,,0.41,,2013-03-10 12:31:00,
2013-03-10 07:42:00,39.0,38.0,29.75,SSE,157,5.0,12.0,98,0.04,,,0.41,,2013-03-10 12:42:00,
2013-03-10 07:52:00,42.0,41.0,29.73,South,179,8.0,14.0,98,0.03,,,0.41,,2013-03-10 12:52:00,
2013-03-10 08:01:00,43.0,42.0,29.70,South,171,19.0,26.0,98,0.02,,,0.41,,2013-03-10 13:01:00,
2013-03-10 08:11:00,43.0,42.0,29.70,South,171,19.0,26.0,98,0.02,,,0.41,,2013-03-10 13:11:00,
2013-03-10 08:21:00,43.0,41.0,29.67,SSE,165,18.0,26.0,94,0.03,,,0.43,,2013-03-10 13:21:00,
2013-03-10 08:31:00,45.0,43.0,29.75,SW,235,9.0,23.0,93,0.02,,,0.43,,2013-03-10 13:31:00,
2013-03-10 08:41:00,45.0,43.0,29.75,SW,235,9.0,23.0,93,0.02,,,0.43,,2013-03-10 13:41:00,
2013-03-10 08:52:00,44.0,42.0,29.75,South,188,8.0,17.0,93,0.02,,,0.43,,2013-03-10 13:52:00,
2013-03-10 09:01:00,43.0,41.0,29.77,South,179,9.0,15.0,93,0.02,,,0.43,,2013-03-10 14:01:00,
2013-03-10 09:11:00,43.0,41.0,29.77,South,179,9.0,15.0,93,0.02,,,0.43,,2013-03-10 14:11:00,
2013-03-10 09:21:00,42.0,40.0,29.77,SSE,168,7.0,9.0,94,0.00,,,0.43,,2013-03-10 14:21:00,
2013-03-10 09:32:00,41.0,40.0,29.77,SSE,162,6.0,8.0,95,0.00,,,0.43,,2013-03-10 14:32:00,
2013-03-10 09:41:00,41.0,40.0,29.77,SSE,162,6.0,8.0,95,0.00,,,0.43,,2013-03-10 14:41:00,
2013-03-10 09:52:00,41.0,39.0,29.77,SSE,155,3.0,8.0,94,0.00,,,0.43,,2013-03-10 14:52:00,
2013-03-10 10:01:00,41.0,40.0,29.78,SSE,158,3.0,6.0,95,0.00,,,0.43,,2013-03-10 15:01:00,
2013-03-10 10:11:00,41.0,40.0,29.78,SSE,158,3.0,6.0,95,0.00,,,0.43,,2013-03-10 15:11:00,
2013-03-10 10:21:00,41.0,40.0,29.77,SSE,155,5.0,7.0,95,0.01,,,0.44,,2013-03-10 15:21:00,
2013-03-10 10:32:00,42.0,40.0,29.77,South,169,5.0,13.0,94,0.02,,,0.45,,2013-03-10 15:32:00,
2013-03-10 10:42:00,42.0,40.0,29.77,South,169,5.0,13.0,94,0.02,,,0.45,,2013-03-10 15:42:00,
2013-03-10 10:52:00,43.0,41.0,29.76,SSE,165,5.0,9.0,94,0.04,,,0.47,,2013-03-10 15:52:00,
2013-03-10 11:01:00,43.0,42.0,29.75,SSE,162,4.0,9.0,95,0.04,,,0.47,,2013-03-10 16:01:00,
2013-03-10 11:12:00,43.0,42.0,29.75,SSE,162,4.0,9.0,95,0.04,,,0.47,,2013-03-10 16:12:00,
2013-03-10 11:21:00,43.0,42.0,29.76,SSE,162,5.0,10.0,95,0.03,,,0.47,,2013-03-10 16:21:00,
2013-03-10 11:31:00,43.0,42.0,29.74,SSE,150,3.0,6.0,95,0.02,,,0.47,,2013-03-10 16:31:00,
2013-03-10 11:41:00,43.0,42.0,29.74,SSE,150,3.0,6.0,95,0.02,,,0.47,,2013-03-10 16:41:00,
2013-03-10 11:52:00,45.0,44.0,29.72,SSE,151,4.0,7.0,96,0.00,,,0.47,,2013-03-10 16:52:00,
2013-03-10 12:01:00,46.0,44.0,29.75,South,175,7.0,12.0,93,0.00,,,0.47,,2013-03-10 17:01:00,
2013-03-10 12:11:00,46.0,44.0,29.75,South,175,7.0,12.0,93,0.00,,,0.47,,2013-03-10 17:11:00,
2013-03-10 12:21:00,46.0,44.0,29.74,South,170,6.0,11.0,93,0.00,,,0.47,,2013-03-10 17:21:00,
2013-03-10 12:31:00,45.0,43.0,29.74,SSE,168,5.0,9.0,92,0.00,,,0.47,,2013-03-10 17:31:00,
2013-03-10 12:41:00,45.0,43.0,29.74,SSE,168,5.0,9.0,92,0.00,,,0.47,,2013-03-10 17:41:00,
2013-03-10 12:51:00,45.0,43.0,29.73,SSE,164,8.0,11.0,93,0.00,,,0.47,,2013-03-10 17:51:00,
2013-03-10 13:01:00,45.0,43.0,29.74,South,173,9.0,13.0,93,0.01,,,0.48,,2013-03-10 18:01:00,
2013-03-10 13:11:00,45.0,43.0,29.74,South,173,9.0,13.0,93,0.01,,,0.48,,2013-03-10 18:11:00,
2013-03-10 13:21:00,46.0,44.0,29.74,South,178,6.0,10.0,93,0.03,,,0.50,,2013-03-10 18:21:00,
2013-03-10 13:32:00,45.0,44.0,29.73,South,171,7.0,10.0,95,0.07,,,0.54,,2013-03-10 18:32:00,
2013-03-10 13:42:00,45.0,44.0,29.73,South,171,7.0,10.0,95,0.07,,,0.54,,2013-03-10 18:42:00,
2013-03-10 13:52:00,45.0,44.0,29.72,South,170,4.0,8.0,96,0.09,,,0.56,,2013-03-10 18:52:00,
2013-03-10 14:01:00,45.0,44.0,29.71,South,172,3.0,5.0,96,0.10,,,0.57,,2013-03-10 19:01:00,
2013-03-10 14:11:00,45.0,44.0,29.71,South,172,3.0,5.0,96,0.10,,,0.57,,2013-03-10 19:11:00,
2013-03-10 14:21:00,45.0,44.0,29.69,South,173,0.0,4.0,96,0.09,,,0.59,,2013-03-10 19:21:00,
2013-03-10 14:31:00,45.0,44.0,29.67,South,173,2.0,3.0,98,0.05,,,0.59,,2013-03-10 19:31:00,
2013-03-10 14:42:00,45.0,44.0,29.67,South,173,2.0,3.0,98,0.05,,,0.59,,2013-03-10 19:42:00,
2013-03-10 14:53:00,45.0,44.0,29.65,SE,136,2.0,4.0,97,0.02,,,0.59,,2013-03-10 19:53:00,
2013-03-10 15:02:00,45.0,44.0,29.65,ESE,105,2.0,4.0,97,0.02,,,0.60,,2013-03-10 20:02:00,
2013-03-10 15:12:00,45.0,44.0,29.65,ESE,105,2.0,4.0,97,0.02,,,0.60,,2013-03-10 20:12:00,
2013-03-10 15:22:00,44.0,43.0,29.65,East,101,5.0,6.0,97,0.03,,,0.62,,2013-03-10 20:22:00,
2013-03-10 15:32:00,44.0,43.0,29.65,ESE,107,5.0,8.0,97,0.06,,,0.65,,2013-03-10 20:32:00,
2013-03-10 15:42:00,44.0,43.0,29.65,ESE,107,5.0,8.0,97,0.06,,,0.65,,2013-03-10 20:42:00,
2013-03-10 15:53:00,44.0,43.0,29.66,ESE,102,4.0,8.0,97,0.08,,,0.67,,2013-03-10 20:53:00,
2013-03-10 16:02:00,45.0,44.0,29.66,SE,133,3.0,8.0,98,0.09,,,0.69,,2013-03-10 21:02:00,
2013-03-10 16:12:00,45.0,44.0,29.66,SE,133,3.0,8.0,98,0.09,,,0.69,,2013-03-10 21:12:00,
2013-03-10 16:23:00,45.0,44.0,29.65,SE,132,0.0,5.0,98,0.09,,,0.71,,2013-03-10 21:23:00,
2013-03-10 16:32:00,44.0,43.0,29.65,SE,138,1.0,3.0,98,0.07,,,0.72,,2013-03-10 21:32:00,
2013-03-10 16:42:00,44.0,43.0,29.65,SE,138,1.0,3.0,98,0.07,,,0.72,,2013-03-10 21:42:00,
2013-03-10 16:53:00,45.0,44.0,29.64,SE,134,2.0,6.0,98,0.06,,,0.73,,2013-03-10 21:53:00,
2013-03-10 17:02:00,45.0,44.0,29.64,SE,134,2.0,6.0,98,0.06,,,0.73,,2013-03-10 22:02:00,
2013-03-10 17:12:00,45.0,44.0,29.64,SE,134,2.0,6.0,98,0.06,,,0.73,,2013-03-10 22:12:00,
2013-03-10 17:22:00,45.0,44.0,29.62,SSE,148,1.0,2.0,98,0.02,,,0.73,,2013-03-10 22:22:00,
2013-03-10 17:32:00,45.0,44.0,29.62,SSE,148,2.0,3.0,98,0.02,,,0.74,,2013-03-10 22:32:00,
2013-03-10 17:43:00,45.0,44.0,29.62,SSE,148,2.0,3.0,98,0.02,,,0.74,,2013-03-10 22:43:00,
2013-03-10 17:53:00,44.0,43.0,29.60,ESE,115,1.0,3.0,98,0.01,,,0.74,,2013-03-10 22:53:00,
2013-03-10 18:03:00,45.0,44.0,29.57,ESE,121,4.0,8.0,98,0.01,,,0.74,,2013-03-10 23:03:00,
2013-03-10 18:12:00,45.0,44.0,29.57,SE,139,3.0,6.0,98,0.01,,,0.74,,2013-03-10 23:12:00,
2013-03-10 18:22:00,45.0,44.0,29.57,SE,139,3.0,6.0,98,0.01,,,0.74,,2013-03-10 23:22:00,
2013-03-10 18:42:00,44.0,43.0,29.57,SSE,165,2.0,5.0,97,0.00,,,0.74,,2013-03-10 23:42:00,
2013-03-10 18:52:00,44.0,43.0,29.57,SSE,150,5.0,9.0,98,0.00,,,0.74,,2013-03-10 23:52:00,
2013-03-10 19:02:00,46.0,45.0,29.58,SSW,200,5.0,11.0,98,0.00,,,0.74,,2013-03-11 00:02:00,
2013-03-10 19:12:00,46.0,45.0,29.58,SSW,200,5.0,11.0,98,0.00,,,0.74,,2013-03-11 00:12:00,
2013-03-10 19:23:00,47.0,46.0,29.60,SSW,211,6.0,9.0,97,0.00,,,0.74,,2013-03-11 00:23:00,
2013-03-10 19:33:00,48.0,47.0,29.60,SSW,196,7.0,13.0,97,0.00,,,0.74,,2013-03-11 00:33:00,
2013-03-10 19:43:00,48.0,47.0,29.60,SSW,196,7.0,13.0,97,0.00,,,0.74,,2013-03-11 00:43:00,
2013-03-10 19:53:00,47.0,46.0,29.61,SW,217,7.0,10.0,97,0.00,,,0.74,,2013-03-11 00:53:00,
2013-03-10 20:02:00,47.0,46.0,29.62,SW,219,5.0,12.0,97,0.00,,,0.74,,2013-03-11 01:02:00,
2013-03-10 20:13:00,47.0,46.0,29.62,SW,219,5.0,12.0,97,0.00,,,0.74,,2013-03-11 01:13:00,
2013-03-10 20:23:00,47.0,46.0,29.62,SW,221,6.0,11.0,98,0.00,,,0.74,,2013-03-11 01:23:00,
2013-03-10 20:32:00,47.0,46.0,29.63,SSW,200,6.0,8.0,98,0.00,,,0.74,,2013-03-11 01:32:00,
2013-03-10 20:42:00,47.0,46.0,29.63,SSW,200,6.0,8.0,98,0.00,,,0.74,,2013-03-11 01:42:00,
2013-03-10 20:53:00,47.0,46.0,29.63,SSW,200,6.0,8.0,98,0.00,,,0.74,,2013-03-11 01:53:00,
2013-03-10 21:02:00,46.0,45.0,29.64,SW,216,4.0,7.0,98,0.00,,,0.74,,2013-03-11 02:02:00,
2013-03-10 21:12:00,46.0,45.0,29.64,SW,216,4.0,7.0,98,0.00,,,0.74,,2013-03-11 02:12:00,
2013-03-10 21:22:00,45.0,44.0,29.64,SSW,211,3.0,7.0,98,0.00,,,0.74,,2013-03-11 02:22:00,
2013-03-10 21:32:00,46.0,46.0,29.65,SSW,206,5.0,10.0,99,0.00,,,0.74,,2013-03-11 02:32:00,
2013-03-10 21:42:00,46.0,46.0,29.65,SSW,206,5.0,10.0,99,0.00,,,0.74,,2013-03-11 02:42:00,
2013-03-10 21:52:00,46.0,46.0,29.64,SSW,202,3.0,7.0,99,0.01,,,0.75,,2013-03-11 02:52:00,
2013-03-10 22:02:00,46.0,46.0,29.65,SSW,202,4.0,7.0,99,0.01,,,0.75,,2013-03-11 03:02:00,
2013-03-10 22:12:00,46.0,46.0,29.65,SSW,202,4.0,7.0,99,0.01,,,0.75,,2013-03-11 03:12:00,
2013-03-10 22:22:00,45.0,44.0,29.65,SW,218,4.0,7.0,98,0.01,,,0.75,,2013-03-11 03:22:00,
2013-03-10 22:32:00,45.0,44.0,29.65,SW,218,4.0,7.0,98,0.01,,,0.75,,2013-03-11 03:32:00,
2013-03-10 22:42:00,45.0,44.0,29.65,SW,218,4.0,7.0,98,0.01,,,0.75,,2013-03-11 03:42:00,
2013-03-10 22:53:00,45.0,45.0,29.65,SSW,213,4.0,7.0,99,0.00,,,0.75,,2013-03-11 03:53:00,
2013-03-10 23:02:00,45.0,45.0,29.64,SSW,204,5.0,7.0,99,0.00,,,0.75,,2013-03-11 04:02:00,
2013-03-10 23:12:00,45.0,45.0,29.64,SSW,204,5.0,7.0,99,0.00,,,0.75,,2013-03-11 04:12:00,
2013-03-10 23:22:00,46.0,46.0,29.65,SW,217,5.0,10.0,99,0.00,,,0.75,,2013-03-11 04:22:00,
2013-03-10 23:32:00,46.0,46.0,29.64,SW,223,5.0,8.0,99,0.00,,,0.75,,2013-03-11 04:32:00,
2013-03-10 23:42:00,46.0,46.0,29.64,SW,223,5.0,8.0,99,0.00,,,0.75,,2013-03-11 04:42:00,
2013-03-10 23:53:00,45.0,45.0,29.63,SSW,201,5.0,7.0,99,0.00,,,0.75,,2013-03-11 04:53:00,